Aeroporto :







RITROVATECI SU...

 
LOGIN :

Iscrizione | Disclaimer

   EN    FR    IT 

 









Sommario :    VFR   VFR Marginale   IFR   IFR Intensivo   IFR Molto Intensivo
Visibilità : 
Base nubi : 
>= 8 km
>= 3000ft
5 / 8 km
1000 / 3000 ft
1500m / 5 km
500 / 1000 ft
800 / 1500m
200 / 500 ft
< 800m
< 200 ft
Simboli :   Temporali  Nebbia  Neve Forte  Precipitazioni Forti  Vento > 20 kt






- Altitudine del aeroporto : 461 ft
- Codice IATA : YYT


CYYT - St John's Int

ULTIMO METAR :
  • 171200Z 25009KT 5SM -SHSN BR OVC004 00/M00 A3007 RMK ST8 TCU EMBD SLP191

METARs OBSOLETI :
  • 171100Z 24009KT 5SM -SHSN BR OVC004 M00/M01 A3005 RMK ST8 TCU EMBD SLP185
  • 171000Z 24006KT 12SM -SHSN OVC004 M00/M01 A3005 RMK SF8 CVCTV CLD EMBD SLP186
  • 170900Z 24007KT 15SM -SHSN OVC006 M00/M01 A3005 RMK SF8 CVCTV CLD EMBD SLP186

TAF TAF CYYT
Valido dal 17 a 12 ore il 18 a 12 ore UTC


171139Z 1712/1812 24010KT 6SM -SN OVC006
TEMPO 1712/1714 2SM -SN OVC003
PROB40 1712/1714 3/4SM -SN
FM171400 20012G22KT 6SM -RASN BR OVC010
TEMPO 1714/1717 3SM -RA BR OVC007
FM171700 19012G22KT 4SM -RA BR OVC010
FM172000 19010KT 3/4SM -RA BR OVC003
FM180300 27010KT 1SM -DZ BR OVC003
FM180500 33010G20KT 4SM BR OVC007
FM180900 33010G20KT P6SM BKN030
FM181100 33010G20KT 3SM -SHSN OVC010 RMK NXT FCST BY 171800Z



MetMap, La meteo Aeronautica in un colpo d'occhio ! - Copyright ORBIFLY Dicembre 2007 - Disclaimer

ORBIFLY MET'MAP TEAM :

Programmazione e sviluppo : Alexandra Zaïnal
Concezione : Baudouin d'Aumeries
Aiuto per la programmazione : Marc-Olivier Méhu
Supporto tecnico e logistico : Manuel Goepfert
Aiuto per la traduzione : Arnaldo La Scala

Contatto : metmap@orbifly.com




FONTI E CREDITI :

   NOAA